<?xml version="1.0" encoding="UTF-8" standalone="no" ?>
<gpx xmlns="http://www.topografix.com/GPX/1/1" xmlns:xsi="http://www.w3.org/2001/XMLSchema-instance" xsi:schemaLocation="http://www.topografix.com/GPX/1/1 http://www.topografix.com/GPX/1/1/gpx.xsd" version="1.1" creator="VisuGPX - https://www.visugpx.com">
  <metadata>
    <name>gernelle-vivier au court-rumel</name>
    <desc><![CDATA[passages en forêt, sous bois, lisières, champs...itinéraire varié et peu difficile.]]></desc>
  </metadata>
  <trk>
    <name><![CDATA[Tracé]]></name>
    <trkseg>
      <trkpt lat="49.74425" lon="4.8239">
        <ele>227.4891357</ele>
        <time>2012-10-06T09:40:52Z</time>
      </trkpt>
      <trkpt lat="49.74454" lon="4.82379">
        <ele>228.4504395</ele>
        <time>2012-10-06T09:41:09Z</time>
      </trkpt>
      <trkpt lat="49.74502" lon="4.82361">
        <ele>228.4504395</ele>
        <time>2012-10-06T09:41:25Z</time>
      </trkpt>
      <trkpt lat="49.74576" lon="4.82331">
        <ele>228.4504395</ele>
        <time>2012-10-06T09:41:47Z</time>
      </trkpt>
      <trkpt lat="49.74647" lon="4.82297">
        <ele>225.5665283</ele>
        <time>2012-10-06T09:42:05Z</time>
      </trkpt>
      <trkpt lat="49.74704" lon="4.82253">
        <ele>227.9697266</ele>
        <time>2012-10-06T09:42:23Z</time>
      </trkpt>
      <trkpt lat="49.74758" lon="4.82234">
        <ele>229.892334</ele>
        <time>2012-10-06T09:42:40Z</time>
      </trkpt>
      <trkpt lat="49.74847" lon="4.82227">
        <ele>226.527832</ele>
        <time>2012-10-06T09:43:04Z</time>
      </trkpt>
      <trkpt lat="49.74887" lon="4.8223">
        <ele>223.163208</ele>
        <time>2012-10-06T09:43:12Z</time>
      </trkpt>
      <trkpt lat="49.74891" lon="4.8223">
        <ele>223.163208</ele>
        <time>2012-10-06T09:43:13Z</time>
      </trkpt>
      <trkpt lat="49.74904" lon="4.82232">
        <ele>221.7211914</ele>
        <time>2012-10-06T09:43:16Z</time>
      </trkpt>
      <trkpt lat="49.7494" lon="4.82247">
        <ele>217.8759766</ele>
        <time>2012-10-06T09:43:24Z</time>
      </trkpt>
      <trkpt lat="49.74949" lon="4.8225">
        <ele>217.3953857</ele>
        <time>2012-10-06T09:43:26Z</time>
      </trkpt>
      <trkpt lat="49.74974" lon="4.82253">
        <ele>214.0306396</ele>
        <time>2012-10-06T09:43:32Z</time>
      </trkpt>
      <trkpt lat="49.74986" lon="4.8225">
        <ele>213.0693359</ele>
        <time>2012-10-06T09:43:35Z</time>
      </trkpt>
      <trkpt lat="49.74989" lon="4.82259">
        <ele>213.5500488</ele>
        <time>2012-10-06T09:43:39Z</time>
      </trkpt>
      <trkpt lat="49.7498" lon="4.8229">
        <ele>216.9146729</ele>
        <time>2012-10-06T09:43:54Z</time>
      </trkpt>
      <trkpt lat="49.74972" lon="4.82314">
        <ele>219.798584</ele>
        <time>2012-10-06T09:44:12Z</time>
      </trkpt>
      <trkpt lat="49.74973" lon="4.82314">
        <ele>219.798584</ele>
        <time>2012-10-06T09:45:20Z</time>
      </trkpt>
      <trkpt lat="49.74973" lon="4.82316">
        <ele>219.3179932</ele>
        <time>2012-10-06T09:45:38Z</time>
      </trkpt>
      <trkpt lat="49.74972" lon="4.82316">
        <ele>219.798584</ele>
        <time>2012-10-06T09:47:23Z</time>
      </trkpt>
      <trkpt lat="49.74972" lon="4.82317">
        <ele>219.798584</ele>
        <time>2012-10-06T09:47:29Z</time>
      </trkpt>
      <trkpt lat="49.74969" lon="4.82333">
        <ele>221.2406006</ele>
        <time>2012-10-06T09:47:37Z</time>
      </trkpt>
      <trkpt lat="49.74957" lon="4.82372">
        <ele>224.1245117</ele>
        <time>2012-10-06T09:47:55Z</time>
      </trkpt>
      <trkpt lat="49.74953" lon="4.82381">
        <ele>224.6052246</ele>
        <time>2012-10-06T09:48:00Z</time>
      </trkpt>
      <trkpt lat="49.7495" lon="4.82389">
        <ele>225.0859375</ele>
        <time>2012-10-06T09:48:18Z</time>
      </trkpt>
      <trkpt lat="49.74942" lon="4.82413">
        <ele>227.0085449</ele>
        <time>2012-10-06T09:49:22Z</time>
      </trkpt>
      <trkpt lat="49.74929" lon="4.82452">
        <ele>230.3730469</ele>
        <time>2012-10-06T09:49:37Z</time>
      </trkpt>
      <trkpt lat="49.74917" lon="4.82486">
        <ele>233.2570801</ele>
        <time>2012-10-06T09:49:52Z</time>
      </trkpt>
      <trkpt lat="49.74909" lon="4.82508">
        <ele>234.6990967</ele>
        <time>2012-10-06T09:50:03Z</time>
      </trkpt>
      <trkpt lat="49.74906" lon="4.82512">
        <ele>234.6990967</ele>
        <time>2012-10-06T09:50:06Z</time>
      </trkpt>
      <trkpt lat="49.74902" lon="4.82519">
        <ele>235.1796875</ele>
        <time>2012-10-06T09:50:10Z</time>
      </trkpt>
      <trkpt lat="49.74894" lon="4.82535">
        <ele>236.1409912</ele>
        <time>2012-10-06T09:50:20Z</time>
      </trkpt>
      <trkpt lat="49.74875" lon="4.82575">
        <ele>238.5443115</ele>
        <time>2012-10-06T09:50:38Z</time>
      </trkpt>
      <trkpt lat="49.74853" lon="4.82624">
        <ele>239.9862061</ele>
        <time>2012-10-06T09:50:56Z</time>
      </trkpt>
      <trkpt lat="49.74825" lon="4.82685">
        <ele>239.0249023</ele>
        <time>2012-10-06T09:51:14Z</time>
      </trkpt>
      <trkpt lat="49.74784" lon="4.8276">
        <ele>239.0249023</ele>
        <time>2012-10-06T09:51:32Z</time>
      </trkpt>
      <trkpt lat="49.74733" lon="4.82829">
        <ele>238.5443115</ele>
        <time>2012-10-06T09:51:50Z</time>
      </trkpt>
      <trkpt lat="49.74697" lon="4.82869">
        <ele>237.5828857</ele>
        <time>2012-10-06T09:52:02Z</time>
      </trkpt>
      <trkpt lat="49.74662" lon="4.82902">
        <ele>234.6990967</ele>
        <time>2012-10-06T09:52:11Z</time>
      </trkpt>
      <trkpt lat="49.74617" lon="4.82955">
        <ele>233.7376709</ele>
        <time>2012-10-06T09:52:25Z</time>
      </trkpt>
      <trkpt lat="49.74605" lon="4.82964">
        <ele>236.1409912</ele>
        <time>2012-10-06T10:00:56Z</time>
      </trkpt>
      <trkpt lat="49.74568" lon="4.83016">
        <ele>235.6602783</ele>
        <time>2012-10-06T10:01:10Z</time>
      </trkpt>
      <trkpt lat="49.74533" lon="4.83112">
        <ele>234.6990967</ele>
        <time>2012-10-06T10:01:29Z</time>
      </trkpt>
      <trkpt lat="49.74511" lon="4.83163">
        <ele>234.6990967</ele>
        <time>2012-10-06T10:01:42Z</time>
      </trkpt>
      <trkpt lat="49.74474" lon="4.83238">
        <ele>234.2183838</ele>
        <time>2012-10-06T10:02:00Z</time>
      </trkpt>
      <trkpt lat="49.74442" lon="4.83293">
        <ele>231.8149414</ele>
        <time>2012-10-06T10:02:12Z</time>
      </trkpt>
      <trkpt lat="49.74426" lon="4.83317">
        <ele>231.3343506</ele>
        <time>2012-10-06T10:02:17Z</time>
      </trkpt>
      <trkpt lat="49.74418" lon="4.83353">
        <ele>231.8149414</ele>
        <time>2012-10-06T10:02:24Z</time>
      </trkpt>
      <trkpt lat="49.74424" lon="4.83363">
        <ele>232.2957764</ele>
        <time>2012-10-06T10:02:27Z</time>
      </trkpt>
      <trkpt lat="49.74447" lon="4.83361">
        <ele>233.2570801</ele>
        <time>2012-10-06T10:02:36Z</time>
      </trkpt>
      <trkpt lat="49.74475" lon="4.83354">
        <ele>232.2957764</ele>
        <time>2012-10-06T10:02:45Z</time>
      </trkpt>
      <trkpt lat="49.74508" lon="4.83334">
        <ele>230.3730469</ele>
        <time>2012-10-06T10:02:52Z</time>
      </trkpt>
      <trkpt lat="49.7453" lon="4.83316">
        <ele>226.527832</ele>
        <time>2012-10-06T10:02:56Z</time>
      </trkpt>
      <trkpt lat="49.74559" lon="4.83298">
        <ele>223.163208</ele>
        <time>2012-10-06T10:03:00Z</time>
      </trkpt>
      <trkpt lat="49.74567" lon="4.83293">
        <ele>222.6824951</ele>
        <time>2012-10-06T10:03:01Z</time>
      </trkpt>
      <trkpt lat="49.74592" lon="4.8329">
        <ele>220.7598877</ele>
        <time>2012-10-06T10:03:04Z</time>
      </trkpt>
      <trkpt lat="49.74609" lon="4.83292">
        <ele>219.798584</ele>
        <time>2012-10-06T10:03:06Z</time>
      </trkpt>
      <trkpt lat="49.74694" lon="4.83308">
        <ele>217.3953857</ele>
        <time>2012-10-06T10:03:17Z</time>
      </trkpt>
      <trkpt lat="49.74798" lon="4.83284">
        <ele>214.9919434</ele>
        <time>2012-10-06T10:03:34Z</time>
      </trkpt>
      <trkpt lat="49.74886" lon="4.83268">
        <ele>212.1080322</ele>
        <time>2012-10-06T10:03:50Z</time>
      </trkpt>
      <trkpt lat="49.74952" lon="4.83255">
        <ele>208.7434082</ele>
        <time>2012-10-06T10:04:03Z</time>
      </trkpt>
      <trkpt lat="49.75024" lon="4.83237">
        <ele>205.8594971</ele>
        <time>2012-10-06T10:04:18Z</time>
      </trkpt>
      <trkpt lat="49.75029" lon="4.83235">
        <ele>205.3787842</ele>
        <time>2012-10-06T10:04:19Z</time>
      </trkpt>
      <trkpt lat="49.75136" lon="4.83207">
        <ele>202.0142822</ele>
        <time>2012-10-06T10:04:40Z</time>
      </trkpt>
      <trkpt lat="49.75173" lon="4.83196">
        <ele>200.5722656</ele>
        <time>2012-10-06T10:04:47Z</time>
      </trkpt>
      <trkpt lat="49.7527" lon="4.83173">
        <ele>197.6882324</ele>
        <time>2012-10-06T10:05:07Z</time>
      </trkpt>
      <trkpt lat="49.75349" lon="4.83169">
        <ele>194.3237305</ele>
        <time>2012-10-06T10:05:21Z</time>
      </trkpt>
      <trkpt lat="49.7536" lon="4.8317">
        <ele>194.3237305</ele>
        <time>2012-10-06T10:05:23Z</time>
      </trkpt>
      <trkpt lat="49.75393" lon="4.83163">
        <ele>193.3623047</ele>
        <time>2012-10-06T10:05:29Z</time>
      </trkpt>
      <trkpt lat="49.75507" lon="4.83133">
        <ele>189.9976807</ele>
        <time>2012-10-06T10:05:50Z</time>
      </trkpt>
      <trkpt lat="49.75568" lon="4.83119">
        <ele>188.5557861</ele>
        <time>2012-10-06T10:06:05Z</time>
      </trkpt>
      <trkpt lat="49.75584" lon="4.83123">
        <ele>188.0750732</ele>
        <time>2012-10-06T10:06:09Z</time>
      </trkpt>
      <trkpt lat="49.75623" lon="4.83131">
        <ele>187.1137695</ele>
        <time>2012-10-06T10:06:20Z</time>
      </trkpt>
      <trkpt lat="49.75661" lon="4.83104">
        <ele>185.6717529</ele>
        <time>2012-10-06T10:06:30Z</time>
      </trkpt>
      <trkpt lat="49.75696" lon="4.83077">
        <ele>184.7105713</ele>
        <time>2012-10-06T10:06:38Z</time>
      </trkpt>
      <trkpt lat="49.75796" lon="4.83015">
        <ele>182.7878418</ele>
        <time>2012-10-06T10:07:00Z</time>
      </trkpt>
      <trkpt lat="49.75805" lon="4.83013">
        <ele>182.7878418</ele>
        <time>2012-10-06T10:07:02Z</time>
      </trkpt>
      <trkpt lat="49.7586" lon="4.83028">
        <ele>182.7878418</ele>
        <time>2012-10-06T10:07:15Z</time>
      </trkpt>
      <trkpt lat="49.75949" lon="4.83081">
        <ele>181.3458252</ele>
        <time>2012-10-06T10:07:37Z</time>
      </trkpt>
      <trkpt lat="49.75991" lon="4.83105">
        <ele>179.9038086</ele>
        <time>2012-10-06T10:07:47Z</time>
      </trkpt>
      <trkpt lat="49.76001" lon="4.83108">
        <ele>179.9038086</ele>
        <time>2012-10-06T10:07:49Z</time>
      </trkpt>
      <trkpt lat="49.76024" lon="4.831">
        <ele>178.942627</ele>
        <time>2012-10-06T10:07:54Z</time>
      </trkpt>
      <trkpt lat="49.76032" lon="4.83089">
        <ele>177.9812012</ele>
        <time>2012-10-06T10:07:56Z</time>
      </trkpt>
      <trkpt lat="49.7604" lon="4.83078">
        <ele>177.9812012</ele>
        <time>2012-10-06T10:07:58Z</time>
      </trkpt>
      <trkpt lat="49.7606" lon="4.83073">
        <ele>177.9812012</ele>
        <time>2012-10-06T10:08:02Z</time>
      </trkpt>
      <trkpt lat="49.76102" lon="4.83096">
        <ele>179.4232178</ele>
        <time>2012-10-06T10:08:14Z</time>
      </trkpt>
      <trkpt lat="49.76121" lon="4.83116">
        <ele>178.942627</ele>
        <time>2012-10-06T10:08:22Z</time>
      </trkpt>
      <trkpt lat="49.76132" lon="4.83133">
        <ele>178.942627</ele>
        <time>2012-10-06T10:08:26Z</time>
      </trkpt>
      <trkpt lat="49.762" lon="4.83211">
        <ele>178.4619141</ele>
        <time>2012-10-06T10:08:44Z</time>
      </trkpt>
      <trkpt lat="49.76248" lon="4.83295">
        <ele>179.9038086</ele>
        <time>2012-10-06T10:09:01Z</time>
      </trkpt>
      <trkpt lat="49.76275" lon="4.83266">
        <ele>176.5393066</ele>
        <time>2012-10-06T10:14:02Z</time>
      </trkpt>
      <trkpt lat="49.76309" lon="4.8324">
        <ele>176.5393066</ele>
        <time>2012-10-06T10:14:11Z</time>
      </trkpt>
      <trkpt lat="49.7634" lon="4.83257">
        <ele>176.5393066</ele>
        <time>2012-10-06T10:14:19Z</time>
      </trkpt>
      <trkpt lat="49.76364" lon="4.83291">
        <ele>177.0200195</ele>
        <time>2012-10-06T10:14:26Z</time>
      </trkpt>
      <trkpt lat="49.76381" lon="4.83331">
        <ele>177.5006104</ele>
        <time>2012-10-06T10:14:33Z</time>
      </trkpt>
      <trkpt lat="49.76382" lon="4.83415">
        <ele>179.9038086</ele>
        <time>2012-10-06T10:14:47Z</time>
      </trkpt>
      <trkpt lat="49.76389" lon="4.83469">
        <ele>181.3458252</ele>
        <time>2012-10-06T10:14:57Z</time>
      </trkpt>
      <trkpt lat="49.76391" lon="4.83476">
        <ele>182.3071289</ele>
        <time>2012-10-06T10:15:00Z</time>
      </trkpt>
      <trkpt lat="49.76394" lon="4.835">
        <ele>184.2298584</ele>
        <time>2012-10-06T10:15:11Z</time>
      </trkpt>
      <trkpt lat="49.7639" lon="4.83524">
        <ele>185.1911621</ele>
        <time>2012-10-06T10:15:19Z</time>
      </trkpt>
      <trkpt lat="49.76381" lon="4.83567">
        <ele>187.1137695</ele>
        <time>2012-10-06T10:15:36Z</time>
      </trkpt>
      <trkpt lat="49.76379" lon="4.83588">
        <ele>188.5557861</ele>
        <time>2012-10-06T10:15:45Z</time>
      </trkpt>
      <trkpt lat="49.76377" lon="4.83634">
        <ele>189.9976807</ele>
        <time>2012-10-06T10:15:58Z</time>
      </trkpt>
      <trkpt lat="49.76374" lon="4.83647">
        <ele>190.4783936</ele>
        <time>2012-10-06T10:16:02Z</time>
      </trkpt>
      <trkpt lat="49.76371" lon="4.8366">
        <ele>190.9589844</ele>
        <time>2012-10-06T10:16:07Z</time>
      </trkpt>
      <trkpt lat="49.7637" lon="4.83669">
        <ele>191.9202881</ele>
        <time>2012-10-06T10:16:11Z</time>
      </trkpt>
      <trkpt lat="49.76366" lon="4.83699">
        <ele>193.8430176</ele>
        <time>2012-10-06T10:16:24Z</time>
      </trkpt>
      <trkpt lat="49.76366" lon="4.83702">
        <ele>194.3237305</ele>
        <time>2012-10-06T10:16:25Z</time>
      </trkpt>
      <trkpt lat="49.76378" lon="4.83723">
        <ele>197.2075195</ele>
        <time>2012-10-06T10:16:38Z</time>
      </trkpt>
      <trkpt lat="49.7639" lon="4.83738">
        <ele>199.130127</ele>
        <time>2012-10-06T10:16:49Z</time>
      </trkpt>
      <trkpt lat="49.76424" lon="4.83749">
        <ele>202.0142822</ele>
        <time>2012-10-06T10:17:10Z</time>
      </trkpt>
      <trkpt lat="49.76457" lon="4.83741">
        <ele>204.8980713</ele>
        <time>2012-10-06T10:17:32Z</time>
      </trkpt>
      <trkpt lat="49.76478" lon="4.83736">
        <ele>205.8594971</ele>
        <time>2012-10-06T10:17:45Z</time>
      </trkpt>
      <trkpt lat="49.76485" lon="4.83734">
        <ele>207.7821045</ele>
        <time>2012-10-06T10:17:49Z</time>
      </trkpt>
      <trkpt lat="49.76511" lon="4.83727">
        <ele>208.7434082</ele>
        <time>2012-10-06T10:18:05Z</time>
      </trkpt>
      <trkpt lat="49.76526" lon="4.83724">
        <ele>210.1854248</ele>
        <time>2012-10-06T10:18:13Z</time>
      </trkpt>
      <trkpt lat="49.76546" lon="4.837">
        <ele>211.1467285</ele>
        <time>2012-10-06T10:18:28Z</time>
      </trkpt>
      <trkpt lat="49.76572" lon="4.83673">
        <ele>212.1080322</ele>
        <time>2012-10-06T10:18:42Z</time>
      </trkpt>
      <trkpt lat="49.76596" lon="4.83658">
        <ele>213.5500488</ele>
        <time>2012-10-06T10:18:56Z</time>
      </trkpt>
      <trkpt lat="49.76602" lon="4.83654">
        <ele>214.0306396</ele>
        <time>2012-10-06T10:18:58Z</time>
      </trkpt>
      <trkpt lat="49.76609" lon="4.83646">
        <ele>214.5112305</ele>
        <time>2012-10-06T10:19:02Z</time>
      </trkpt>
      <trkpt lat="49.76635" lon="4.83628">
        <ele>216.9146729</ele>
        <time>2012-10-06T10:19:17Z</time>
      </trkpt>
      <trkpt lat="49.76651" lon="4.83614">
        <ele>219.3179932</ele>
        <time>2012-10-06T10:19:30Z</time>
      </trkpt>
      <trkpt lat="49.76665" lon="4.83599">
        <ele>221.2406006</ele>
        <time>2012-10-06T10:19:44Z</time>
      </trkpt>
      <trkpt lat="49.76667" lon="4.83595">
        <ele>221.7211914</ele>
        <time>2012-10-06T10:19:47Z</time>
      </trkpt>
      <trkpt lat="49.76685" lon="4.83579">
        <ele>223.6437988</ele>
        <time>2012-10-06T10:20:03Z</time>
      </trkpt>
      <trkpt lat="49.76696" lon="4.83567">
        <ele>224.6052246</ele>
        <time>2012-10-06T10:20:13Z</time>
      </trkpt>
      <trkpt lat="49.76703" lon="4.83561">
        <ele>225.5665283</ele>
        <time>2012-10-06T10:20:19Z</time>
      </trkpt>
      <trkpt lat="49.76716" lon="4.83551">
        <ele>226.527832</ele>
        <time>2012-10-06T10:20:31Z</time>
      </trkpt>
      <trkpt lat="49.76729" lon="4.83539">
        <ele>227.9697266</ele>
        <time>2012-10-06T10:20:44Z</time>
      </trkpt>
      <trkpt lat="49.76732" lon="4.83538">
        <ele>228.4504395</ele>
        <time>2012-10-06T10:20:46Z</time>
      </trkpt>
      <trkpt lat="49.76757" lon="4.83522">
        <ele>227.0085449</ele>
        <time>2012-10-06T10:20:58Z</time>
      </trkpt>
      <trkpt lat="49.76769" lon="4.83512">
        <ele>231.8149414</ele>
        <time>2012-10-06T10:21:06Z</time>
      </trkpt>
      <trkpt lat="49.76786" lon="4.83495">
        <ele>234.2183838</ele>
        <time>2012-10-06T10:21:20Z</time>
      </trkpt>
      <trkpt lat="49.7679" lon="4.83489">
        <ele>234.6990967</ele>
        <time>2012-10-06T10:21:23Z</time>
      </trkpt>
      <trkpt lat="49.76792" lon="4.83476">
        <ele>237.1022949</ele>
        <time>2012-10-06T10:21:31Z</time>
      </trkpt>
      <trkpt lat="49.76794" lon="4.83471">
        <ele>237.5828857</ele>
        <time>2012-10-06T10:21:34Z</time>
      </trkpt>
      <trkpt lat="49.76809" lon="4.83447">
        <ele>240.467041</ele>
        <time>2012-10-06T10:21:53Z</time>
      </trkpt>
      <trkpt lat="49.76829" lon="4.83431">
        <ele>243.3508301</ele>
        <time>2012-10-06T10:22:13Z</time>
      </trkpt>
      <trkpt lat="49.7683" lon="4.83431">
        <ele>243.3508301</ele>
        <time>2012-10-06T10:22:14Z</time>
      </trkpt>
      <trkpt lat="49.76848" lon="4.83417">
        <ele>246.2348633</ele>
        <time>2012-10-06T10:22:32Z</time>
      </trkpt>
      <trkpt lat="49.76853" lon="4.83409">
        <ele>247.1960449</ele>
        <time>2012-10-06T10:22:38Z</time>
      </trkpt>
      <trkpt lat="49.76861" lon="4.83392">
        <ele>248.6381836</ele>
        <time>2012-10-06T10:22:49Z</time>
      </trkpt>
      <trkpt lat="49.76876" lon="4.83366">
        <ele>251.0413818</ele>
        <time>2012-10-06T10:23:10Z</time>
      </trkpt>
      <trkpt lat="49.76892" lon="4.83342">
        <ele>253.4447021</ele>
        <time>2012-10-06T10:23:28Z</time>
      </trkpt>
      <trkpt lat="49.76918" lon="4.83308">
        <ele>256.3287354</ele>
        <time>2012-10-06T10:23:54Z</time>
      </trkpt>
      <trkpt lat="49.76939" lon="4.83271">
        <ele>257.770752</ele>
        <time>2012-10-06T10:24:17Z</time>
      </trkpt>
      <trkpt lat="49.76945" lon="4.83259">
        <ele>259.2126465</ele>
        <time>2012-10-06T10:24:25Z</time>
      </trkpt>
      <trkpt lat="49.76951" lon="4.83252">
        <ele>260.654541</ele>
        <time>2012-10-06T10:24:34Z</time>
      </trkpt>
      <trkpt lat="49.76951" lon="4.83245">
        <ele>264.9805908</ele>
        <time>2012-10-06T10:24:38Z</time>
      </trkpt>
      <trkpt lat="49.76951" lon="4.83243">
        <ele>262.0965576</ele>
        <time>2012-10-06T10:24:39Z</time>
      </trkpt>
      <trkpt lat="49.76952" lon="4.83242">
        <ele>261.1352539</ele>
        <time>2012-10-06T10:24:41Z</time>
      </trkpt>
      <trkpt lat="49.76951" lon="4.83242">
        <ele>261.1352539</ele>
        <time>2012-10-06T10:25:00Z</time>
      </trkpt>
      <trkpt lat="49.76949" lon="4.83235">
        <ele>261.1352539</ele>
        <time>2012-10-06T10:25:07Z</time>
      </trkpt>
      <trkpt lat="49.76951" lon="4.83239">
        <ele>261.1352539</ele>
        <time>2012-10-06T10:25:11Z</time>
      </trkpt>
      <trkpt lat="49.76952" lon="4.83243">
        <ele>261.1352539</ele>
        <time>2012-10-06T10:25:13Z</time>
      </trkpt>
      <trkpt lat="49.76957" lon="4.83252">
        <ele>260.654541</ele>
        <time>2012-10-06T10:25:17Z</time>
      </trkpt>
      <trkpt lat="49.76969" lon="4.83293">
        <ele>259.2126465</ele>
        <time>2012-10-06T10:25:26Z</time>
      </trkpt>
      <trkpt lat="49.77" lon="4.83336">
        <ele>256.8093262</ele>
        <time>2012-10-06T10:25:35Z</time>
      </trkpt>
      <trkpt lat="49.7706" lon="4.83378">
        <ele>253.4447021</ele>
        <time>2012-10-06T10:25:51Z</time>
      </trkpt>
      <trkpt lat="49.77076" lon="4.83391">
        <ele>252.4833984</ele>
        <time>2012-10-06T10:25:55Z</time>
      </trkpt>
      <trkpt lat="49.77097" lon="4.83402">
        <ele>252.0028076</ele>
        <time>2012-10-06T10:26:04Z</time>
      </trkpt>
      <trkpt lat="49.7711" lon="4.83399">
        <ele>251.0413818</ele>
        <time>2012-10-06T10:26:15Z</time>
      </trkpt>
      <trkpt lat="49.77119" lon="4.83396">
        <ele>250.560791</ele>
        <time>2012-10-06T10:26:19Z</time>
      </trkpt>
      <trkpt lat="49.77145" lon="4.83381">
        <ele>247.1960449</ele>
        <time>2012-10-06T10:26:31Z</time>
      </trkpt>
      <trkpt lat="49.77155" lon="4.83381">
        <ele>245.7541504</ele>
        <time>2012-10-06T10:26:33Z</time>
      </trkpt>
      <trkpt lat="49.77204" lon="4.83366">
        <ele>242.8702393</ele>
        <time>2012-10-06T10:26:42Z</time>
      </trkpt>
      <trkpt lat="49.77242" lon="4.83376">
        <ele>239.0249023</ele>
        <time>2012-10-06T10:26:51Z</time>
      </trkpt>
      <trkpt lat="49.77256" lon="4.83382">
        <ele>237.5828857</ele>
        <time>2012-10-06T10:26:54Z</time>
      </trkpt>
      <trkpt lat="49.77282" lon="4.83394">
        <ele>236.1409912</ele>
        <time>2012-10-06T10:27:02Z</time>
      </trkpt>
      <trkpt lat="49.7732" lon="4.83436">
        <ele>235.1796875</ele>
        <time>2012-10-06T10:27:14Z</time>
      </trkpt>
      <trkpt lat="49.77357" lon="4.83464">
        <ele>234.2183838</ele>
        <time>2012-10-06T10:27:25Z</time>
      </trkpt>
      <trkpt lat="49.7736" lon="4.83465">
        <ele>234.6990967</ele>
        <time>2012-10-06T10:27:26Z</time>
      </trkpt>
      <trkpt lat="49.77388" lon="4.83464">
        <ele>232.2957764</ele>
        <time>2012-10-06T10:27:34Z</time>
      </trkpt>
      <trkpt lat="49.77408" lon="4.83444">
        <ele>231.3343506</ele>
        <time>2012-10-06T10:27:44Z</time>
      </trkpt>
      <trkpt lat="49.77408" lon="4.83434">
        <ele>230.8537598</ele>
        <time>2012-10-06T10:27:48Z</time>
      </trkpt>
      <trkpt lat="49.77401" lon="4.83385">
        <ele>232.7764893</ele>
        <time>2012-10-06T10:28:07Z</time>
      </trkpt>
      <trkpt lat="49.7743" lon="4.8334">
        <ele>236.1409912</ele>
        <time>2012-10-06T10:28:27Z</time>
      </trkpt>
      <trkpt lat="49.77464" lon="4.83311">
        <ele>239.0249023</ele>
        <time>2012-10-06T10:28:46Z</time>
      </trkpt>
      <trkpt lat="49.77502" lon="4.83293">
        <ele>242.3896484</ele>
        <time>2012-10-06T10:29:05Z</time>
      </trkpt>
      <trkpt lat="49.77507" lon="4.83293">
        <ele>241.9089355</ele>
        <time>2012-10-06T10:29:08Z</time>
      </trkpt>
      <trkpt lat="49.7751" lon="4.83294">
        <ele>242.8702393</ele>
        <time>2012-10-06T10:29:10Z</time>
      </trkpt>
      <trkpt lat="49.77553" lon="4.83268">
        <ele>246.2348633</ele>
        <time>2012-10-06T10:29:32Z</time>
      </trkpt>
      <trkpt lat="49.77559" lon="4.83262">
        <ele>248.6381836</ele>
        <time>2012-10-06T10:29:36Z</time>
      </trkpt>
      <trkpt lat="49.77569" lon="4.83248">
        <ele>248.1575928</ele>
        <time>2012-10-06T10:29:46Z</time>
      </trkpt>
      <trkpt lat="49.7758" lon="4.83236">
        <ele>249.5994873</ele>
        <time>2012-10-06T10:29:55Z</time>
      </trkpt>
      <trkpt lat="49.77582" lon="4.83227">
        <ele>250.0802002</ele>
        <time>2012-10-06T10:29:59Z</time>
      </trkpt>
      <trkpt lat="49.77579" lon="4.83205">
        <ele>251.5220947</ele>
        <time>2012-10-06T10:30:08Z</time>
      </trkpt>
      <trkpt lat="49.77564" lon="4.83165">
        <ele>252.4833984</ele>
        <time>2012-10-06T10:30:21Z</time>
      </trkpt>
      <trkpt lat="49.77542" lon="4.8312">
        <ele>253.4447021</ele>
        <time>2012-10-06T10:30:34Z</time>
      </trkpt>
      <trkpt lat="49.77517" lon="4.83077">
        <ele>252.9639893</ele>
        <time>2012-10-06T10:30:47Z</time>
      </trkpt>
      <trkpt lat="49.77488" lon="4.83042">
        <ele>251.5220947</ele>
        <time>2012-10-06T10:31:00Z</time>
      </trkpt>
      <trkpt lat="49.77458" lon="4.8301">
        <ele>249.5994873</ele>
        <time>2012-10-06T10:31:10Z</time>
      </trkpt>
      <trkpt lat="49.77396" lon="4.82944">
        <ele>247.6767578</ele>
        <time>2012-10-06T10:31:27Z</time>
      </trkpt>
      <trkpt lat="49.77318" lon="4.82863">
        <ele>247.1960449</ele>
        <time>2012-10-06T10:31:47Z</time>
      </trkpt>
      <trkpt lat="49.77234" lon="4.82786">
        <ele>245.2734375</ele>
        <time>2012-10-06T10:32:07Z</time>
      </trkpt>
      <trkpt lat="49.77204" lon="4.82758">
        <ele>246.2348633</ele>
        <time>2012-10-06T10:32:15Z</time>
      </trkpt>
      <trkpt lat="49.77113" lon="4.82677">
        <ele>244.3122559</ele>
        <time>2012-10-06T10:32:36Z</time>
      </trkpt>
      <trkpt lat="49.77082" lon="4.82654">
        <ele>242.3896484</ele>
        <time>2012-10-06T10:32:42Z</time>
      </trkpt>
      <trkpt lat="49.77022" lon="4.82608">
        <ele>239.0249023</ele>
        <time>2012-10-06T10:32:54Z</time>
      </trkpt>
      <trkpt lat="49.76994" lon="4.82584">
        <ele>235.6602783</ele>
        <time>2012-10-06T10:32:59Z</time>
      </trkpt>
      <trkpt lat="49.76957" lon="4.82537">
        <ele>232.2957764</ele>
        <time>2012-10-06T10:33:06Z</time>
      </trkpt>
      <trkpt lat="49.76878" lon="4.82437">
        <ele>228.9311523</ele>
        <time>2012-10-06T10:33:22Z</time>
      </trkpt>
      <trkpt lat="49.76873" lon="4.8243">
        <ele>228.9311523</ele>
        <time>2012-10-06T10:33:23Z</time>
      </trkpt>
      <trkpt lat="49.76858" lon="4.8241">
        <ele>227.4891357</ele>
        <time>2012-10-06T10:33:26Z</time>
      </trkpt>
      <trkpt lat="49.76853" lon="4.82402">
        <ele>227.0085449</ele>
        <time>2012-10-06T10:33:27Z</time>
      </trkpt>
      <trkpt lat="49.76838" lon="4.82344">
        <ele>226.527832</ele>
        <time>2012-10-06T10:33:33Z</time>
      </trkpt>
      <trkpt lat="49.76837" lon="4.82324">
        <ele>226.527832</ele>
        <time>2012-10-06T10:33:35Z</time>
      </trkpt>
      <trkpt lat="49.76819" lon="4.8223">
        <ele>225.5665283</ele>
        <time>2012-10-06T10:33:46Z</time>
      </trkpt>
      <trkpt lat="49.76805" lon="4.82099">
        <ele>226.527832</ele>
        <time>2012-10-06T10:34:04Z</time>
      </trkpt>
      <trkpt lat="49.76771" lon="4.81938">
        <ele>227.0085449</ele>
        <time>2012-10-06T10:34:28Z</time>
      </trkpt>
      <trkpt lat="49.76747" lon="4.81834">
        <ele>228.4504395</ele>
        <time>2012-10-06T10:34:47Z</time>
      </trkpt>
      <trkpt lat="49.7673" lon="4.81771">
        <ele>229.892334</ele>
        <time>2012-10-06T10:35:01Z</time>
      </trkpt>
      <trkpt lat="49.76731" lon="4.81769">
        <ele>230.8537598</ele>
        <time>2012-10-06T10:35:55Z</time>
      </trkpt>
      <trkpt lat="49.76731" lon="4.8177">
        <ele>229.4117432</ele>
        <time>2012-10-06T10:37:05Z</time>
      </trkpt>
      <trkpt lat="49.76732" lon="4.81775">
        <ele>229.4117432</ele>
        <time>2012-10-06T10:37:23Z</time>
      </trkpt>
      <trkpt lat="49.76732" lon="4.81775">
        <ele>228.9311523</ele>
        <time>2012-10-06T10:37:35Z</time>
      </trkpt>
    </trkseg>
  </trk>
</gpx>